sensor_id;sensor_type;location;lat;lon;timestamp;pressure;altitude;pressure_sealevel;temperature;humidity
61474;BME280;53694;49.784;30.150;2023-03-20T00:01:26;100104.64;;;4.31;70.08
61474;BME280;53694;49.784;30.150;2023-03-20T00:02:27;100104.64;;;4.54;68.90
61474;BME280;53694;49.784;30.150;2023-03-20T00:03:29;100099.69;;;4.78;68.20
61474;BME280;53694;49.784;30.150;2023-03-20T00:04:30;100092.92;;;4.98;67.13
61474;BME280;53694;49.784;30.150;2023-03-20T00:05:31;100102.73;;;5.08;66.36
61474;BME280;53694;49.784;30.150;2023-03-20T00:06:33;100099.65;;;5.00;66.32
61474;BME280;53694;49.784;30.150;2023-03-20T00:07:35;100096.83;;;4.83;66.64
61474;BME280;53694;49.784;30.150;2023-03-20T00:08:36;100087.72;;;4.57;66.96
61474;BME280;53694;49.784;30.150;2023-03-20T00:09:38;100097.73;;;4.25;67.06
61474;BME280;53694;49.784;30.150;2023-03-20T00:10:42;100091.97;;;3.90;66.98
61474;BME280;53694;49.784;30.150;2023-03-20T00:11:49;100093.85;;;3.54;67.11
61474;BME280;53694;49.784;30.150;2023-03-20T00:12:52;100087.02;;;3.15;68.04
61474;BME280;53694;49.784;30.150;2023-03-20T00:14:05;100091.97;;;2.80;69.66
61474;BME280;53694;49.784;30.150;2023-03-20T00:15:42;100092.48;;;2.49;70.80
61474;BME280;53694;49.784;30.150;2023-03-20T00:16:19;100085.95;;;2.18;72.34
61474;BME280;53694;49.784;30.150;2023-03-20T00:17:21;100081.18;;;1.91;73.46
61474;BME280;53694;49.784;30.150;2023-03-20T00:18:23;100083.81;;;1.77;74.12
61474;BME280;53694;49.784;30.150;2023-03-20T00:19:26;100088.13;;;1.78;74.67
61474;BME280;53694;49.784;30.150;2023-03-20T00:20:28;100081.18;;;1.91;74.37
61474;BME280;53694;49.784;30.150;2023-03-20T00:21:30;100084.93;;;2.14;73.82
61474;BME280;53694;49.784;30.150;2023-03-20T00:22:32;100075.59;;;2.39;72.98
61474;BME280;53694;49.784;30.150;2023-03-20T00:23:33;100080.29;;;2.66;71.91
61474;BME280;53694;49.784;30.150;2023-03-20T00:24:35;100078.45;;;2.94;71.60
61474;BME280;53694;49.784;30.150;2023-03-20T00:25:55;100075.95;;;3.25;71.21
61474;BME280;53694;49.784;30.150;2023-03-20T00:26:56;100071.62;;;3.65;70.39
61474;BME280;53694;49.784;30.150;2023-03-20T00:27:58;100069.02;;;3.96;69.77
61474;BME280;53694;49.784;30.150;2023-03-20T00:29:01;100070.55;;;4.25;69.11
61474;BME280;53694;49.784;30.150;2023-03-20T00:31:29;100062.48;;;4.65;67.21
61474;BME280;53694;49.784;30.150;2023-03-20T00:32:31;100062.62;;;4.60;65.73
61474;BME280;53694;49.784;30.150;2023-03-20T00:33:32;100059.60;;;4.39;65.93
61474;BME280;53694;49.784;30.150;2023-03-20T00:34:34;100067.56;;;4.13;66.33
61474;BME280;53694;49.784;30.150;2023-03-20T00:35:36;100063.63;;;3.83;67.24
61474;BME280;53694;49.784;30.150;2023-03-20T00:36:37;100068.30;;;3.55;67.96
61474;BME280;53694;49.784;30.150;2023-03-20T00:37:39;100055.84;;;3.26;68.59
61474;BME280;53694;49.784;30.150;2023-03-20T00:38:40;100056.95;;;2.97;69.38
61474;BME280;53694;49.784;30.150;2023-03-20T00:39:42;100033.06;;;2.53;70.38
61474;BME280;53694;49.784;30.150;2023-03-20T00:40:43;100051.91;;;2.44;70.91
61474;BME280;53694;49.784;30.150;2023-03-20T00:41:56;100060.98;;;2.21;71.53
61474;BME280;53694;49.784;30.150;2023-03-20T00:42:54;100063.39;;;2.04;72.05
61474;BME280;53694;49.784;30.150;2023-03-20T00:45:19;100059.08;;;2.21;72.55
61474;BME280;53694;49.784;30.150;2023-03-20T00:46:21;100061.28;;;2.52;71.42
61474;BME280;53694;49.784;30.150;2023-03-20T00:47:23;100049.47;;;2.75;70.41
61474;BME280;53694;49.784;30.150;2023-03-20T00:48:25;100055.22;;;3.01;69.73
61474;BME280;53694;49.784;30.150;2023-03-20T00:49:29;100052.01;;;3.27;68.94
61474;BME280;53694;49.784;30.150;2023-03-20T00:50:31;100056.43;;;3.50;68.43
61474;BME280;53694;49.784;30.150;2023-03-20T00:51:33;100051.17;;;3.68;67.93
61474;BME280;53694;49.784;30.150;2023-03-20T00:52:34;100052.77;;;3.69;67.49
61474;BME280;53694;49.784;30.150;2023-03-20T00:53:36;100051.69;;;3.56;67.58
61474;BME280;53694;49.784;30.150;2023-03-20T00:54:38;100052.62;;;3.38;68.01
61474;BME280;53694;49.784;30.150;2023-03-20T00:55:39;100050.63;;;3.16;68.42
61474;BME280;53694;49.784;30.150;2023-03-20T00:56:44;100050.31;;;2.90;68.92
61474;BME280;53694;49.784;30.150;2023-03-20T00:58:51;100053.11;;;2.38;70.38
61474;BME280;53694;49.784;30.150;2023-03-20T01:00:02;100058.11;;;2.12;71.09
61474;BME280;53694;49.784;30.150;2023-03-20T01:01:04;100057.11;;;1.89;71.90
61474;BME280;53694;49.784;30.150;2023-03-20T01:02:06;100059.44;;;1.77;72.92
61474;BME280;53694;49.784;30.150;2023-03-20T01:03:16;100059.44;;;1.77;72.92
61474;BME280;53694;49.784;30.150;2023-03-20T01:04:19;100050.53;;;1.95;73.09
61474;BME280;53694;49.784;30.150;2023-03-20T01:05:21;100051.97;;;2.25;72.70
61474;BME280;53694;49.784;30.150;2023-03-20T01:06:23;100043.81;;;2.58;72.28
61474;BME280;53694;49.784;30.150;2023-03-20T01:07:24;100039.36;;;2.95;71.88
61474;BME280;53694;49.784;30.150;2023-03-20T01:08:26;100049.50;;;3.31;71.26
61474;BME280;53694;49.784;30.150;2023-03-20T01:09:27;100043.14;;;3.63;70.39
61474;BME280;53694;49.784;30.150;2023-03-20T01:10:31;100047.09;;;3.93;69.39
61474;BME280;53694;49.784;30.150;2023-03-20T01:11:33;100048.89;;;4.20;68.60
61474;BME280;53694;49.784;30.150;2023-03-20T01:12:34;100044.75;;;4.45;67.65
61474;BME280;53694;49.784;30.150;2023-03-20T01:13:37;100041.95;;;4.59;67.08
61474;BME280;53694;49.784;30.150;2023-03-20T01:14:41;100047.39;;;4.59;66.30
61474;BME280;53694;49.784;30.150;2023-03-20T01:15:43;100047.80;;;4.43;66.13
61474;BME280;53694;49.784;30.150;2023-03-20T01:16:45;100051.13;;;4.18;66.63
61474;BME280;53694;49.784;30.150;2023-03-20T01:17:47;100043.69;;;3.87;67.46
61474;BME280;53694;49.784;30.150;2023-03-20T01:18:49;100048.97;;;3.56;68.35
61474;BME280;53694;49.784;30.150;2023-03-20T01:19:52;100057.27;;;3.23;69.37
61474;BME280;53694;49.784;30.150;2023-03-20T01:20:54;100048.09;;;2.92;70.30
61474;BME280;53694;49.784;30.150;2023-03-20T01:21:55;100046.24;;;2.60;71.35
61474;BME280;53694;49.784;30.150;2023-03-20T01:22:57;100041.31;;;2.29;72.47
61474;BME280;53694;49.784;30.150;2023-03-20T01:23:58;100045.97;;;2.10;73.44
61474;BME280;53694;49.784;30.150;2023-03-20T01:25:00;100050.86;;;2.08;73.75
61474;BME280;53694;49.784;30.150;2023-03-20T01:26:02;100047.70;;;2.19;73.71
61474;BME280;53694;49.784;30.150;2023-03-20T01:27:04;100047.08;;;2.41;73.39
61474;BME280;53694;49.784;30.150;2023-03-20T01:28:18;100036.80;;;2.71;73.31
61474;BME280;53694;49.784;30.150;2023-03-20T01:29:22;100033.52;;;3.01;72.66
61474;BME280;53694;49.784;30.150;2023-03-20T01:30:27;100039.36;;;3.36;71.73
61474;BME280;53694;49.784;30.150;2023-03-20T01:31:29;100030.55;;;3.67;71.16
61474;BME280;53694;49.784;30.150;2023-03-20T01:32:30;100038.33;;;3.96;70.42
61474;BME280;53694;49.784;30.150;2023-03-20T01:33:32;100038.53;;;4.22;69.55
61474;BME280;53694;49.784;30.150;2023-03-20T01:34:33;100031.95;;;4.45;69.11
61474;BME280;53694;49.784;30.150;2023-03-20T01:35:35;100034.16;;;4.66;68.39
61474;BME280;53694;49.784;30.150;2023-03-20T01:36:37;100033.91;;;4.76;67.86
61474;BME280;53694;49.784;30.150;2023-03-20T01:37:39;100035.33;;;4.73;67.34
61474;BME280;53694;49.784;30.150;2023-03-20T01:38:41;100038.43;;;4.58;67.31
61474;BME280;53694;49.784;30.150;2023-03-20T01:39:42;100034.43;;;4.33;66.68
61474;BME280;53694;49.784;30.150;2023-03-20T01:41:00;100037.41;;;4.00;66.52
61474;BME280;53694;49.784;30.150;2023-03-20T01:42:02;100031.67;;;3.66;66.80
61474;BME280;53694;49.784;30.150;2023-03-20T01:43:13;100040.77;;;3.20;67.17
61474;BME280;53694;49.784;30.150;2023-03-20T01:44:21;100040.42;;;2.80;67.78
61474;BME280;53694;49.784;30.150;2023-03-20T01:45:27;100035.44;;;2.41;68.97
61474;BME280;53694;49.784;30.150;2023-03-20T01:46:30;100040.64;;;2.05;69.87
61474;BME280;53694;49.784;30.150;2023-03-20T01:47:31;100038.96;;;1.71;70.88
61474;BME280;53694;49.784;30.150;2023-03-20T01:48:55;100033.97;;;1.40;71.95
61474;BME280;53694;49.784;30.150;2023-03-20T01:51:26;100036.61;;;0.97;74.06
61474;BME280;53694;49.784;30.150;2023-03-20T01:52:28;100036.45;;;1.13;74.77
61474;BME280;53694;49.784;30.150;2023-03-20T01:53:29;100037.67;;;1.44;75.27
61474;BME280;53694;49.784;30.150;2023-03-20T01:54:34;100038.80;;;1.81;75.09
61474;BME280;53694;49.784;30.150;2023-03-20T01:55:37;100039.58;;;2.19;74.37
61474;BME280;53694;49.784;30.150;2023-03-20T01:56:43;100038.38;;;2.58;73.48
61474;BME280;53694;49.784;30.150;2023-03-20T01:57:46;100039.36;;;2.95;72.49
61474;BME280;53694;49.784;30.150;2023-03-20T01:58:52;100038.16;;;3.29;71.14
61474;BME280;53694;49.784;30.150;2023-03-20T01:59:56;100043.73;;;3.60;69.90
61474;BME280;53694;49.784;30.150;2023-03-20T02:00:58;100038.25;;;3.87;68.68
61474;BME280;53694;49.784;30.150;2023-03-20T02:02:00;100040.38;;;4.13;67.54
61474;BME280;53694;49.784;30.150;2023-03-20T02:03:03;100043.36;;;4.25;66.76
61474;BME280;53694;49.784;30.150;2023-03-20T02:04:06;100033.09;;;4.22;66.31
61474;BME280;53694;49.784;30.150;2023-03-20T02:05:10;100031.36;;;4.04;65.99
61474;BME280;53694;49.784;30.150;2023-03-20T02:06:13;100029.72;;;3.80;66.04
61474;BME280;53694;49.784;30.150;2023-03-20T02:07:17;100030.67;;;3.48;66.04
61474;BME280;53694;49.784;30.150;2023-03-20T02:08:26;100032.22;;;3.13;66.64
61474;BME280;53694;49.784;30.150;2023-03-20T02:09:28;100030.48;;;2.75;67.10
61474;BME280;53694;49.784;30.150;2023-03-20T02:10:30;100033.92;;;2.35;67.78
61474;BME280;53694;49.784;30.150;2023-03-20T02:11:31;100031.48;;;2.00;68.71
61474;BME280;53694;49.784;30.150;2023-03-20T02:12:35;100040.87;;;1.70;69.47
61474;BME280;53694;49.784;30.150;2023-03-20T02:13:38;100039.64;;;1.39;70.38
61474;BME280;53694;49.784;30.150;2023-03-20T02:14:40;100041.36;;;1.11;71.32
61474;BME280;53694;49.784;30.150;2023-03-20T02:16:04;100036.73;;;0.87;72.29
61474;BME280;53694;49.784;30.150;2023-03-20T02:17:08;100031.47;;;0.72;73.08
61474;BME280;53694;49.784;30.150;2023-03-20T02:18:10;100033.61;;;0.75;73.53
61474;BME280;53694;49.784;30.150;2023-03-20T02:19:20;100031.00;;;0.94;73.34
61474;BME280;53694;49.784;30.150;2023-03-20T02:26:06;100022.66;;;2.74;69.16
61474;BME280;53694;49.784;30.150;2023-03-20T02:38:31;100014.80;;;1.56;69.83
61474;BME280;53694;49.784;30.150;2023-03-20T02:44:05;100012.24;;;0.49;74.34
61474;BME280;53694;49.784;30.150;2023-03-20T02:46:37;100008.06;;;1.10;73.55
61474;BME280;53694;49.784;30.150;2023-03-20T02:47:52;100012.66;;;1.53;72.70
61474;BME280;53694;49.784;30.150;2023-03-20T02:49:12;100004.98;;;1.97;71.54
61474;BME280;53694;49.784;30.150;2023-03-20T02:50:36;99993.66;;;2.42;70.54
61474;BME280;53694;49.784;30.150;2023-03-20T02:51:53;100002.56;;;2.89;69.38
61474;BME280;53694;49.784;30.150;2023-03-20T02:53:10;100000.84;;;3.34;67.52
61474;BME280;53694;49.784;30.150;2023-03-20T02:56:50;99998.30;;;3.88;63.52
61474;BME280;53694;49.784;30.150;2023-03-20T02:58:02;99990.22;;;3.60;63.50
61474;BME280;53694;49.784;30.150;2023-03-20T03:01:32;100005.61;;;2.41;65.52
61474;BME280;53694;49.784;30.150;2023-03-20T03:02:40;100010.62;;;2.01;66.50
61474;BME280;53694;49.784;30.150;2023-03-20T03:03:55;100013.04;;;1.65;67.18
61474;BME280;53694;49.784;30.150;2023-03-20T03:04:58;100005.41;;;1.29;68.07
61474;BME280;53694;49.784;30.150;2023-03-20T03:06:24;100004.76;;;0.94;69.47
61474;BME280;53694;49.784;30.150;2023-03-20T03:07:24;100007.20;;;0.67;70.52
61474;BME280;53694;49.784;30.150;2023-03-20T03:08:30;99995.90;;;0.36;71.82
61474;BME280;53694;49.784;30.150;2023-03-20T03:09:41;100001.18;;;0.17;72.94
61474;BME280;53694;49.784;30.150;2023-03-20T03:10:48;100003.47;;;0.05;73.58
61474;BME280;53694;49.784;30.150;2023-03-20T03:11:52;100001.48;;;0.15;74.11
61474;BME280;53694;49.784;30.150;2023-03-20T03:12:55;99995.60;;;0.37;74.15
61474;BME280;53694;49.784;30.150;2023-03-20T03:13:59;99995.83;;;0.70;73.62
61474;BME280;53694;49.784;30.150;2023-03-20T03:15:13;99998.11;;;1.06;73.09
61474;BME280;53694;49.784;30.150;2023-03-20T03:16:16;99997.15;;;1.39;72.12
61474;BME280;53694;49.784;30.150;2023-03-20T03:17:21;100002.87;;;1.75;71.50
61474;BME280;53694;49.784;30.150;2023-03-20T03:18:24;99991.78;;;2.10;70.74
61474;BME280;53694;49.784;30.150;2023-03-20T03:19:27;99999.91;;;2.42;69.96
61474;BME280;53694;49.784;30.150;2023-03-20T03:20:36;99992.33;;;2.72;68.67
61474;BME280;53694;49.784;30.150;2023-03-20T03:21:36;99995.14;;;2.94;67.50
61474;BME280;53694;49.784;30.150;2023-03-20T03:22:39;99990.93;;;3.02;66.48
61474;BME280;53694;49.784;30.150;2023-03-20T03:23:43;99989.12;;;2.97;66.43
61474;BME280;53694;49.784;30.150;2023-03-20T03:24:47;99992.44;;;2.81;66.68
61474;BME280;53694;49.784;30.150;2023-03-20T03:25:49;99989.47;;;2.49;66.97
61474;BME280;53694;49.784;30.150;2023-03-20T03:26:51;99989.51;;;2.17;67.78
61474;BME280;53694;49.784;30.150;2023-03-20T03:28:05;99992.19;;;1.84;68.64
61474;BME280;53694;49.784;30.150;2023-03-20T03:29:01;99990.73;;;1.54;69.42
61474;BME280;53694;49.784;30.150;2023-03-20T03:31:16;99988.59;;;0.89;70.98
61474;BME280;53694;49.784;30.150;2023-03-20T03:32:33;99984.84;;;0.61;71.92
61474;BME280;53694;49.784;30.150;2023-03-20T03:33:41;99983.08;;;0.46;72.72
61474;BME280;53694;49.784;30.150;2023-03-20T03:34:44;99984.36;;;0.54;73.10
61474;BME280;53694;49.784;30.150;2023-03-20T03:35:46;99985.98;;;0.79;72.93
61474;BME280;53694;49.784;30.150;2023-03-20T03:37:25;99986.42;;;1.10;72.46
61474;BME280;53694;49.784;30.150;2023-03-20T03:38:50;99989.25;;;1.43;71.75
61474;BME280;53694;49.784;30.150;2023-03-20T03:39:52;99986.33;;;1.96;70.37
61474;BME280;53694;49.784;30.150;2023-03-20T03:41:18;99980.42;;;2.40;68.90
61474;BME280;53694;49.784;30.150;2023-03-20T03:42:35;99983.08;;;2.73;68.05
61474;BME280;53694;49.784;30.150;2023-03-20T03:43:44;99979.86;;;3.12;66.42
61474;BME280;53694;49.784;30.150;2023-03-20T03:45:02;99984.34;;;3.31;65.63
61474;BME280;53694;49.784;30.150;2023-03-20T03:46:27;99980.83;;;3.30;65.02
61474;BME280;53694;49.784;30.150;2023-03-20T03:47:31;99983.97;;;3.10;65.04
61474;BME280;53694;49.784;30.150;2023-03-20T03:48:37;99986.28;;;2.75;65.87
61474;BME280;53694;49.784;30.150;2023-03-20T03:49:42;99979.83;;;2.43;66.27
61474;BME280;53694;49.784;30.150;2023-03-20T03:50:50;99987.66;;;2.12;67.00
61474;BME280;53694;49.784;30.150;2023-03-20T03:51:55;99985.22;;;1.78;67.88
61474;BME280;53694;49.784;30.150;2023-03-20T03:53:01;99988.95;;;1.44;68.68
61474;BME280;53694;49.784;30.150;2023-03-20T03:54:06;99990.70;;;1.16;69.62
61474;BME280;53694;49.784;30.150;2023-03-20T03:55:10;99985.89;;;0.89;71.21
61474;BME280;53694;49.784;30.150;2023-03-20T03:56:15;99987.48;;;0.66;72.70
61474;BME280;53694;49.784;30.150;2023-03-20T03:57:25;99991.19;;;0.46;73.75
61474;BME280;53694;49.784;30.150;2023-03-20T03:58:41;99978.59;;;0.37;74.64
61474;BME280;53694;49.784;30.150;2023-03-20T03:59:49;99990.68;;;0.44;75.09
61474;BME280;53694;49.784;30.150;2023-03-20T04:00:51;99987.16;;;0.73;74.97
61474;BME280;53694;49.784;30.150;2023-03-20T04:01:55;99991.33;;;1.08;74.40
61474;BME280;53694;49.784;30.150;2023-03-20T04:02:58;99987.08;;;1.45;73.56
61474;BME280;53694;49.784;30.150;2023-03-20T04:04:02;99981.13;;;1.81;72.54
61474;BME280;53694;49.784;30.150;2023-03-20T04:05:05;99994.41;;;2.15;71.48
61474;BME280;53694;49.784;30.150;2023-03-20T04:06:09;99984.66;;;2.46;70.16
61474;BME280;53694;49.784;30.150;2023-03-20T04:07:13;99986.28;;;2.75;68.99
61474;BME280;53694;49.784;30.150;2023-03-20T04:08:15;99995.53;;;3.01;67.90
61474;BME280;53694;49.784;30.150;2023-03-20T04:09:16;99987.48;;;3.24;66.76
61474;BME280;53694;49.784;30.150;2023-03-20T04:10:18;99994.01;;;3.37;65.99
61474;BME280;53694;49.784;30.150;2023-03-20T04:11:22;99992.70;;;3.34;65.59
61474;BME280;53694;49.784;30.150;2023-03-20T04:12:33;99996.83;;;3.18;65.09
61474;BME280;53694;49.784;30.150;2023-03-20T04:13:35;100001.86;;;2.83;64.19
61474;BME280;53694;49.784;30.150;2023-03-20T04:14:37;99998.06;;;2.38;65.10
61474;BME280;53694;49.784;30.150;2023-03-20T04:15:38;100005.78;;;1.98;66.24
61474;BME280;53694;49.784;30.150;2023-03-20T04:16:40;99999.58;;;1.60;67.08
61474;BME280;53694;49.784;30.150;2023-03-20T04:17:42;99997.94;;;1.21;67.91
61474;BME280;53694;49.784;30.150;2023-03-20T04:18:45;100010.26;;;0.84;69.09
61474;BME280;53694;49.784;30.150;2023-03-20T04:19:47;100005.73;;;0.50;70.27
61474;BME280;53694;49.784;30.150;2023-03-20T04:20:48;100003.33;;;0.20;71.47
61474;BME280;53694;49.784;30.150;2023-03-20T04:21:50;99997.88;;;-0.09;72.49
61474;BME280;53694;49.784;30.150;2023-03-20T04:22:51;100006.36;;;-0.26;73.36
61474;BME280;53694;49.784;30.150;2023-03-20T04:23:53;99997.47;;;-0.27;73.98
61474;BME280;53694;49.784;30.150;2023-03-20T04:24:54;100001.42;;;-0.14;74.28
61474;BME280;53694;49.784;30.150;2023-03-20T04:25:56;100007.73;;;0.11;74.22
61474;BME280;53694;49.784;30.150;2023-03-20T04:26:57;100003.95;;;0.41;73.83
61474;BME280;53694;49.784;30.150;2023-03-20T04:27:59;100010.62;;;0.78;73.61
61474;BME280;53694;49.784;30.150;2023-03-20T04:29:00;100011.60;;;1.11;72.64
61474;BME280;53694;49.784;30.150;2023-03-20T04:30:02;100019.25;;;1.46;72.01
61474;BME280;53694;49.784;30.150;2023-03-20T04:31:04;100017.66;;;1.83;71.26
61474;BME280;53694;49.784;30.150;2023-03-20T04:32:06;100010.88;;;2.18;70.53
61474;BME280;53694;49.784;30.150;2023-03-20T04:33:07;100009.24;;;2.50;69.33
61474;BME280;53694;49.784;30.150;2023-03-20T04:34:09;100005.79;;;2.77;68.22
61474;BME280;53694;49.784;30.150;2023-03-20T04:35:11;100015.63;;;3.00;66.69
61474;BME280;53694;49.784;30.150;2023-03-20T04:36:13;100009.22;;;3.10;65.50
61474;BME280;53694;49.784;30.150;2023-03-20T04:37:14;100005.78;;;3.05;65.10
61474;BME280;53694;49.784;30.150;2023-03-20T04:38:16;100005.58;;;2.87;65.23
61474;BME280;53694;49.784;30.150;2023-03-20T04:39:18;100005.56;;;2.60;65.45
61474;BME280;53694;49.784;30.150;2023-03-20T04:40:20;100005.06;;;2.25;66.27
61474;BME280;53694;49.784;30.150;2023-03-20T04:41:21;100002.84;;;1.94;67.30
61474;BME280;53694;49.784;30.150;2023-03-20T04:42:23;100002.20;;;1.65;68.37
61474;BME280;53694;49.784;30.150;2023-03-20T04:43:24;100006.71;;;1.32;69.37
61474;BME280;53694;49.784;30.150;2023-03-20T04:44:26;100008.43;;;1.04;70.16
61474;BME280;53694;49.784;30.150;2023-03-20T04:45:27;100005.21;;;0.78;70.87
61474;BME280;53694;49.784;30.150;2023-03-20T04:46:29;100004.62;;;0.57;71.66
61474;BME280;53694;49.784;30.150;2023-03-20T04:47:31;100004.75;;;0.41;72.16
61474;BME280;53694;49.784;30.150;2023-03-20T04:48:32;99999.08;;;0.43;72.59
61474;BME280;53694;49.784;30.150;2023-03-20T04:49:34;100003.52;;;0.58;72.68
61474;BME280;53694;49.784;30.150;2023-03-20T04:50:35;100002.45;;;0.83;72.28
61474;BME280;53694;49.784;30.150;2023-03-20T04:51:37;99998.08;;;1.11;71.81
61474;BME280;53694;49.784;30.150;2023-03-20T04:52:39;99994.17;;;1.41;70.93
61474;BME280;53694;49.784;30.150;2023-03-20T04:53:40;99996.72;;;1.70;70.06
61474;BME280;53694;49.784;30.150;2023-03-20T04:54:42;99994.14;;;1.97;69.24
61474;BME280;53694;49.784;30.150;2023-03-20T04:55:44;99998.04;;;2.24;68.70
61474;BME280;53694;49.784;30.150;2023-03-20T04:56:46;99994.09;;;2.49;67.74
61474;BME280;53694;49.784;30.150;2023-03-20T04:57:47;99988.68;;;2.63;66.90
61474;BME280;53694;49.784;30.150;2023-03-20T04:58:49;99989.30;;;2.60;66.18
61474;BME280;53694;49.784;30.150;2023-03-20T04:59:51;99993.08;;;2.45;66.68
61474;BME280;53694;49.784;30.150;2023-03-20T05:00:52;100000.75;;;2.24;67.21
61474;BME280;53694;49.784;30.150;2023-03-20T05:01:54;99986.52;;;1.99;67.92
61474;BME280;53694;49.784;30.150;2023-03-20T05:02:56;99989.61;;;1.74;68.50
61474;BME280;53694;49.784;30.150;2023-03-20T05:03:57;99995.39;;;1.48;69.52
61474;BME280;53694;49.784;30.150;2023-03-20T05:04:59;99995.53;;;1.19;70.40
61474;BME280;53694;49.784;30.150;2023-03-20T05:06:00;99999.05;;;0.96;71.51
61474;BME280;53694;49.784;30.150;2023-03-20T05:07:02;100000.37;;;0.74;72.17
61474;BME280;53694;49.784;30.150;2023-03-20T05:08:04;99999.45;;;0.60;72.61
61474;BME280;53694;49.784;30.150;2023-03-20T05:09:06;100001.05;;;0.61;72.65
61474;BME280;53694;49.784;30.150;2023-03-20T05:10:09;99999.56;;;0.74;72.64
61474;BME280;53694;49.784;30.150;2023-03-20T05:11:11;99999.34;;;0.94;72.37
61474;BME280;53694;49.784;30.150;2023-03-20T05:12:12;100002.25;;;1.22;72.04
61474;BME280;53694;49.784;30.150;2023-03-20T05:13:14;100001.91;;;1.47;71.30
61474;BME280;53694;49.784;30.150;2023-03-20T05:14:16;100005.86;;;1.74;70.68
61474;BME280;53694;49.784;30.150;2023-03-20T05:15:17;99995.16;;;2.02;70.14
61474;BME280;53694;49.784;30.150;2023-03-20T05:16:19;99991.94;;;2.32;69.81
61474;BME280;53694;49.784;30.150;2023-03-20T05:17:21;99991.70;;;2.61;69.13
61474;BME280;53694;49.784;30.150;2023-03-20T05:18:23;99994.73;;;2.87;68.17
61474;BME280;53694;49.784;30.150;2023-03-20T05:19:25;99993.82;;;3.06;67.54
61474;BME280;53694;49.784;30.150;2023-03-20T05:20:27;99992.11;;;3.10;67.03
61474;BME280;53694;49.784;30.150;2023-03-20T05:21:28;99997.44;;;3.01;66.96
61474;BME280;53694;49.784;30.150;2023-03-20T05:22:30;100003.46;;;2.84;67.39
61474;BME280;53694;49.784;30.150;2023-03-20T05:23:31;99997.44;;;2.60;67.44
61474;BME280;53694;49.784;30.150;2023-03-20T05:24:33;99998.47;;;2.31;67.94
61474;BME280;53694;49.784;30.150;2023-03-20T05:25:35;99990.23;;;2.04;68.66
61474;BME280;53694;49.784;30.150;2023-03-20T05:26:36;99999.38;;;1.75;69.23
61474;BME280;53694;49.784;30.150;2023-03-20T05:27:38;99991.09;;;1.47;70.17
61474;BME280;53694;49.784;30.150;2023-03-20T05:28:39;100002.25;;;1.22;71.09
61474;BME280;53694;49.784;30.150;2023-03-20T05:29:41;99997.95;;;0.97;71.87
61474;BME280;53694;49.784;30.150;2023-03-20T05:30:43;99989.49;;;0.80;72.66
61474;BME280;53694;49.784;30.150;2023-03-20T05:31:45;100000.61;;;0.78;73.40
61474;BME280;53694;49.784;30.150;2023-03-20T05:32:50;99997.52;;;0.90;73.67
61474;BME280;53694;49.784;30.150;2023-03-20T05:33:52;99999.11;;;1.15;73.58
61474;BME280;53694;49.784;30.150;2023-03-20T05:34:53;99994.89;;;1.46;73.15
61474;BME280;53694;49.784;30.150;2023-03-20T05:35:55;100001.20;;;1.80;72.83
61474;BME280;53694;49.784;30.150;2023-03-20T05:36:56;99993.82;;;2.18;72.41
61474;BME280;53694;49.784;30.150;2023-03-20T05:37:58;99995.10;;;2.53;71.47
61474;BME280;53694;49.784;30.150;2023-03-20T05:38:59;100000.16;;;2.87;70.36
61474;BME280;53694;49.784;30.150;2023-03-20T05:40:02;100001.45;;;3.17;69.22
61474;BME280;53694;49.784;30.150;2023-03-20T05:41:04;100000.01;;;3.47;68.05
61474;BME280;53694;49.784;30.150;2023-03-20T05:42:05;100003.27;;;3.72;66.92
61474;BME280;53694;49.784;30.150;2023-03-20T05:43:07;100001.81;;;3.88;66.31
61474;BME280;53694;49.784;30.150;2023-03-20T05:44:08;100003.92;;;3.91;65.70
61474;BME280;53694;49.784;30.150;2023-03-20T05:45:10;100004.95;;;3.82;65.87
61474;BME280;53694;49.784;30.150;2023-03-20T05:46:12;100004.12;;;3.59;65.43
61474;BME280;53694;49.784;30.150;2023-03-20T05:47:13;100008.78;;;3.31;65.90
61474;BME280;53694;49.784;30.150;2023-03-20T05:48:15;100009.61;;;3.04;66.72
61474;BME280;53694;49.784;30.150;2023-03-20T05:49:16;100013.41;;;2.75;67.46
61474;BME280;53694;49.784;30.150;2023-03-20T05:50:18;100012.85;;;2.45;67.91
61474;BME280;53694;49.784;30.150;2023-03-20T05:51:20;100010.88;;;2.18;68.63
61474;BME280;53694;49.784;30.150;2023-03-20T05:52:22;100014.30;;;1.91;69.42
61474;BME280;53694;49.784;30.150;2023-03-20T05:53:23;100014.86;;;1.69;70.37
61474;BME280;53694;49.784;30.150;2023-03-20T05:54:25;100019.75;;;1.48;71.21
61474;BME280;53694;49.784;30.150;2023-03-20T05:55:26;100021.08;;;1.32;71.96
61474;BME280;53694;49.784;30.150;2023-03-20T05:56:28;100020.08;;;1.23;72.47
61474;BME280;53694;49.784;30.150;2023-03-20T05:57:30;100018.64;;;1.31;72.81
61474;BME280;53694;49.784;30.150;2023-03-20T05:58:31;100017.00;;;1.54;73.10
61474;BME280;53694;49.784;30.150;2023-03-20T05:59:33;100018.16;;;1.85;72.50
61474;BME280;53694;49.784;30.150;2023-03-20T06:00:34;100010.57;;;2.20;71.70
61474;BME280;53694;49.784;30.150;2023-03-20T06:01:36;100012.17;;;2.54;70.80
61474;BME280;53694;49.784;30.150;2023-03-20T06:02:38;100021.27;;;2.90;70.53
61474;BME280;53694;49.784;30.150;2023-03-20T06:03:39;100013.52;;;3.25;69.60
61474;BME280;53694;49.784;30.150;2023-03-20T06:04:41;100018.02;;;3.57;68.63
61474;BME280;53694;49.784;30.150;2023-03-20T06:05:43;100018.92;;;3.89;67.59
61474;BME280;53694;49.784;30.150;2023-03-20T06:06:44;100014.00;;;4.13;66.36
61474;BME280;53694;49.784;30.150;2023-03-20T06:07:46;100010.22;;;4.23;66.13
61474;BME280;53694;49.784;30.150;2023-03-20T06:08:48;100022.50;;;4.20;65.76
61474;BME280;53694;49.784;30.150;2023-03-20T06:09:49;100017.94;;;4.07;65.83
61474;BME280;53694;49.784;30.150;2023-03-20T06:10:51;100022.15;;;3.91;66.14